createdAt,value
2023-01-10T00:01:46.819Z,25.25
2023-01-10T00:04:16.530Z,24.92
2023-01-10T00:06:44.696Z,24.05
2023-01-10T00:09:12.999Z,25.55
2023-01-10T00:11:58.828Z,25.45
2023-01-10T00:14:29.160Z,25.55
2023-01-10T00:16:57.868Z,24.75
2023-01-10T00:19:27.633Z,26.30
2023-01-10T00:21:57.489Z,25.35
2023-01-10T00:24:25.768Z,25.20
2023-01-10T00:26:54.273Z,25.30
2023-01-10T00:29:24.116Z,27.58
2023-01-10T00:31:52.449Z,28.02
2023-01-10T00:34:21.190Z,27.67
2023-01-10T00:36:50.931Z,27.48
2023-01-10T00:39:20.440Z,27.27
2023-01-10T00:42:06.056Z,27.23
2023-01-10T00:44:34.245Z,26.75
2023-01-10T00:47:02.470Z,27.58
2023-01-10T00:49:30.781Z,27.02
2023-01-10T00:52:00.383Z,27.20
2023-01-10T00:54:28.552Z,26.70
2023-01-10T00:56:56.895Z,26.67
2023-01-10T00:59:25.592Z,27.15
2023-01-10T01:01:54.084Z,28.08
2023-01-10T01:04:22.725Z,27.88
2023-01-10T01:06:51.009Z,30.33
2023-01-10T01:09:20.692Z,27.80
2023-01-10T01:11:49.552Z,28.58
2023-01-10T01:14:17.770Z,29.17
2023-01-10T01:16:45.884Z,29.35
2023-01-10T01:19:14.389Z,30.00
2023-01-10T01:21:42.511Z,29.27
2023-01-10T01:24:12.159Z,29.05
2023-01-10T01:26:42.827Z,28.77
2023-01-10T01:29:11.414Z,29.90
2023-01-10T01:31:39.552Z,28.55
2023-01-10T01:34:07.903Z,29.73
2023-01-10T01:36:36.036Z,29.50
2023-01-10T01:39:06.239Z,30.85
2023-01-10T01:41:52.089Z,29.95
2023-01-10T01:44:21.797Z,30.50
2023-01-10T01:46:55.150Z,29.95
2023-01-10T01:49:25.446Z,30.55
2023-01-10T01:51:59.645Z,30.80
2023-01-10T01:54:29.130Z,30.92
2023-01-10T01:57:00.054Z,30.40
2023-01-10T01:59:33.800Z,30.13
2023-01-10T02:02:09.096Z,31.38
2023-01-10T02:04:45.268Z,31.58
2023-01-10T02:07:14.641Z,31.10
2023-01-10T02:09:46.891Z,31.73
2023-01-10T02:12:16.692Z,32.35
2023-01-10T02:14:48.299Z,31.02
2023-01-10T02:17:16.776Z,31.80
2023-01-10T02:19:54.546Z,32.22
2023-01-10T02:22:49.727Z,32.75
2023-01-10T02:25:49.964Z,32.33
2023-01-10T02:28:44.788Z,32.20
2023-01-10T02:31:33.223Z,31.13
2023-01-10T02:34:09.080Z,33.50
2023-01-10T02:36:45.403Z,32.47
2023-01-10T02:39:20.460Z,31.80
2023-01-10T02:41:58.062Z,34.42
2023-01-10T02:44:31.099Z,32.45
2023-01-10T02:46:59.326Z,33.30
2023-01-10T02:49:28.798Z,33.05
2023-01-10T02:51:57.922Z,32.83
2023-01-10T02:54:30.855Z,34.38
2023-01-10T02:57:23.365Z,32.92
2023-01-10T03:00:30.905Z,31.65
2023-01-10T03:03:13.162Z,33.40
2023-01-10T03:05:54.176Z,34.40
2023-01-10T03:08:34.061Z,32.10
2023-01-10T03:11:04.168Z,32.40
2023-01-10T03:13:38.001Z,34.35
2023-01-10T03:16:10.813Z,34.67
2023-01-10T03:18:44.810Z,31.95
2023-01-10T03:21:15.374Z,31.15
2023-01-10T03:23:44.026Z,30.67
2023-01-10T03:26:14.116Z,31.52
2023-01-10T03:28:48.244Z,31.92
2023-01-10T03:31:19.773Z,30.23
2023-01-10T03:33:49.872Z,28.67
2023-01-10T03:36:31.029Z,32.25
2023-01-10T03:39:06.596Z,31.02
2023-01-10T03:41:41.414Z,29.10
2023-01-10T03:44:41.465Z,31.27
2023-01-10T03:47:12.629Z,28.60
2023-01-10T03:49:43.386Z,29.10
2023-01-10T03:52:16.409Z,29.88
2023-01-10T03:54:45.231Z,29.05
2023-01-10T03:57:21.052Z,29.08
2023-01-10T03:59:51.937Z,28.98
2023-01-10T04:02:20.163Z,30.92
2023-01-10T04:04:48.426Z,29.02
2023-01-10T04:07:17.998Z,28.42
2023-01-10T04:09:46.229Z,28.08
2023-01-10T04:12:14.395Z,26.15
2023-01-10T04:14:42.869Z,29.45
2023-01-10T04:17:10.991Z,27.52
2023-01-10T04:19:39.263Z,27.08
2023-01-10T04:22:07.473Z,26.08
2023-01-10T04:24:37.118Z,28.02
2023-01-10T04:27:05.584Z,28.00
2023-01-10T04:29:33.889Z,27.33
2023-01-10T04:32:02.082Z,27.08
2023-01-10T04:34:30.272Z,26.25
2023-01-10T04:36:58.436Z,27.42
2023-01-10T04:39:26.687Z,26.92
2023-01-10T04:41:56.172Z,28.02
2023-01-10T04:44:24.401Z,27.90
2023-01-10T04:46:52.557Z,27.02
2023-01-10T04:49:20.790Z,26.40
2023-01-10T04:51:48.976Z,27.17
2023-01-10T04:54:21.291Z,26.13
2023-01-10T04:56:49.701Z,27.50
2023-01-10T04:59:19.392Z,27.52
2023-01-10T05:01:47.758Z,26.50
2023-01-10T05:04:16.156Z,27.77
2023-01-10T05:06:44.468Z,27.67
2023-01-10T05:09:12.604Z,28.98
2023-01-10T05:11:40.826Z,28.83
2023-01-10T05:14:09.210Z,28.83
2023-01-10T05:16:38.849Z,29.25
2023-01-10T05:19:07.029Z,31.75
2023-01-10T05:21:35.184Z,30.05
2023-01-10T05:24:03.382Z,29.95
2023-01-10T05:26:31.696Z,31.08
2023-01-10T05:28:59.810Z,31.65
2023-01-10T05:31:28.073Z,29.83
2023-01-10T05:33:57.628Z,31.67
2023-01-10T05:36:25.807Z,31.30
2023-01-10T05:38:53.965Z,31.58
2023-01-10T05:41:22.197Z,29.70
2023-01-10T05:43:50.519Z,32.85
2023-01-10T05:46:18.796Z,31.48
2023-01-10T05:48:47.059Z,30.13
2023-01-10T05:51:16.643Z,31.30
2023-01-10T05:53:44.763Z,31.92
2023-01-10T05:56:13.046Z,30.38
2023-01-10T05:58:41.191Z,29.92
2023-01-10T06:01:09.915Z,30.50
2023-01-10T06:03:38.476Z,30.95
2023-01-10T06:06:07.277Z,31.13
2023-01-10T06:08:37.944Z,30.02
2023-01-10T06:11:07.011Z,30.15
2023-01-10T06:13:35.232Z,30.13
2023-01-10T06:16:03.518Z,31.15
2023-01-10T06:18:31.742Z,29.60
2023-01-10T06:20:59.975Z,30.50
2023-01-10T06:23:30.293Z,30.20
2023-01-10T06:26:00.096Z,27.88
2023-01-10T06:28:28.303Z,29.35
2023-01-10T06:30:56.477Z,27.63
2023-01-10T06:33:24.889Z,25.63
2023-01-10T06:35:53.155Z,27.33
2023-01-10T06:38:21.463Z,27.83
2023-01-10T06:40:49.657Z,26.15
2023-01-10T06:43:19.230Z,28.27
2023-01-10T06:45:47.502Z,25.60
2023-01-10T06:48:16.395Z,30.05
2023-01-10T06:50:44.620Z,27.77
2023-01-10T06:53:12.753Z,28.27
2023-01-10T06:55:41.089Z,29.05
2023-01-10T06:58:10.174Z,29.65
2023-01-10T07:00:40.421Z,27.95
2023-01-10T07:03:08.565Z,29.70
2023-01-10T07:05:36.904Z,29.55
2023-01-10T07:08:05.324Z,29.83
2023-01-10T07:10:33.579Z,28.70
2023-01-10T07:13:01.764Z,30.67
2023-01-10T07:15:31.682Z,31.88
2023-01-10T07:18:01.521Z,32.05
2023-01-10T07:20:30.179Z,30.92
2023-01-10T07:22:59.591Z,28.65
2023-01-10T07:25:30.210Z,30.00
2023-01-10T07:27:58.410Z,29.52
2023-01-10T07:30:26.602Z,30.70
2023-01-10T07:32:56.045Z,30.63
2023-01-10T07:35:26.875Z,28.40
2023-01-10T07:37:55.151Z,28.83
2023-01-10T07:40:23.374Z,30.20
2023-01-10T07:42:51.625Z,27.80
2023-01-10T07:45:19.831Z,29.85
2023-01-10T07:47:48.069Z,29.38
2023-01-10T07:50:18.075Z,30.38
2023-01-10T07:52:47.809Z,28.95
2023-01-10T07:55:16.104Z,28.05
2023-01-10T07:57:44.259Z,27.98
2023-01-10T08:00:13.567Z,26.90
2023-01-10T08:02:41.975Z,27.10
2023-01-10T08:05:10.971Z,28.35
2023-01-10T08:07:39.353Z,28.63
2023-01-10T08:10:10.218Z,29.35
2023-01-10T08:12:38.521Z,28.38
2023-01-10T08:15:07.613Z,30.55
2023-01-10T08:17:36.448Z,29.65
2023-01-10T08:20:05.215Z,30.35
2023-01-10T08:22:33.423Z,29.52
2023-01-10T08:25:01.691Z,28.83
2023-01-10T08:27:31.246Z,29.50
2023-01-10T08:29:59.733Z,28.05
2023-01-10T08:32:28.112Z,29.13
2023-01-10T08:34:56.237Z,30.65
2023-01-10T08:37:24.466Z,30.40
2023-01-10T08:39:52.722Z,31.50
2023-01-10T08:42:20.975Z,32.17
2023-01-10T08:44:50.553Z,29.83
2023-01-10T08:47:18.998Z,33.70
2023-01-10T08:49:47.171Z,32.13
2023-01-10T08:52:15.385Z,30.63
2023-01-10T08:54:43.954Z,30.88
2023-01-10T08:57:12.293Z,27.85
2023-01-10T08:59:40.468Z,30.65
2023-01-10T09:02:13.515Z,28.73
2023-01-10T09:04:41.832Z,28.45
2023-01-10T09:07:09.977Z,30.10
2023-01-10T09:09:38.504Z,28.67
2023-01-10T09:12:27.415Z,28.75
2023-01-10T09:14:55.748Z,26.58
2023-01-10T09:17:25.373Z,29.15
2023-01-10T09:19:53.610Z,28.70
2023-01-10T09:22:21.826Z,27.05
2023-01-10T09:24:50.107Z,27.48
2023-01-10T09:27:18.247Z,29.27
2023-01-10T09:29:46.424Z,28.60
2023-01-10T09:32:14.895Z,29.63
2023-01-10T09:34:44.539Z,27.20
2023-01-10T09:37:12.770Z,29.10
2023-01-10T09:39:41.003Z,28.88
2023-01-10T09:42:28.313Z,30.13
2023-01-10T09:45:07.410Z,29.13
2023-01-10T09:47:44.075Z,28.63
2023-01-10T09:50:20.725Z,29.05
2023-01-10T09:52:53.250Z,27.20
2023-01-10T09:55:31.504Z,28.80
2023-01-10T09:58:05.145Z,26.95
2023-01-10T10:00:40.528Z,26.92
2023-01-10T10:03:20.185Z,28.10
2023-01-10T10:05:52.651Z,28.13
2023-01-10T10:08:21.909Z,26.85
2023-01-10T10:11:01.642Z,27.48
2023-01-10T10:13:42.033Z,28.15
2023-01-10T10:16:20.173Z,28.35
2023-01-10T10:18:57.146Z,27.42
2023-01-10T10:21:34.793Z,26.40
2023-01-10T10:24:34.264Z,26.35
2023-01-10T10:27:15.428Z,26.40
2023-01-10T10:30:01.443Z,29.15
2023-01-10T10:32:54.097Z,27.23
2023-01-10T10:35:28.611Z,29.52
2023-01-10T10:38:03.215Z,29.40
2023-01-10T10:40:36.951Z,27.02
2023-01-10T10:43:16.361Z,29.67
2023-01-10T10:45:49.250Z,26.48
2023-01-10T10:48:23.068Z,28.42
2023-01-10T10:51:03.600Z,27.88
2023-01-10T10:53:34.794Z,27.40
2023-01-10T10:56:05.311Z,31.30
2023-01-10T10:58:33.856Z,28.40
2023-01-10T11:01:02.512Z,26.90
2023-01-10T11:03:39.590Z,29.08
2023-01-10T11:06:09.189Z,30.23
2023-01-10T11:08:43.195Z,28.77
2023-01-10T11:11:20.640Z,31.38
2023-01-10T11:13:53.359Z,31.02
2023-01-10T11:16:30.792Z,30.77
2023-01-10T11:19:26.960Z,31.10
2023-01-10T11:21:57.914Z,29.20
2023-01-10T11:24:33.519Z,28.63
2023-01-10T11:27:05.471Z,28.35
2023-01-10T11:29:39.798Z,29.85
2023-01-10T11:32:15.241Z,27.52
2023-01-10T11:34:50.232Z,27.98
2023-01-10T11:37:25.268Z,30.40
2023-01-10T11:40:16.193Z,28.65
2023-01-10T11:42:44.712Z,27.92
2023-01-10T11:45:32.730Z,26.75
2023-01-10T11:48:18.576Z,25.77
2023-01-10T11:50:51.546Z,25.88
2023-01-10T11:53:47.463Z,26.27
2023-01-10T11:56:26.186Z,23.63
2023-01-10T11:58:55.005Z,23.73
2023-01-10T12:01:33.024Z,22.45
2023-01-10T12:04:01.479Z,26.00
2023-01-10T12:06:30.177Z,24.10
2023-01-10T12:08:58.475Z,22.70
2023-01-10T12:11:31.079Z,20.10
2023-01-10T12:14:01.014Z,21.65
2023-01-10T12:16:30.614Z,21.25
2023-01-10T12:19:01.101Z,21.60
2023-01-10T12:21:34.771Z,21.48
2023-01-10T12:24:07.290Z,22.95
2023-01-10T12:26:37.451Z,22.52
2023-01-10T12:29:12.755Z,23.05
2023-01-10T12:31:42.147Z,20.95
2023-01-10T12:34:20.047Z,19.77
2023-01-10T12:36:57.189Z,20.50
2023-01-10T12:39:30.413Z,20.20
2023-01-10T12:42:30.309Z,18.92
2023-01-10T12:45:04.088Z,19.08
2023-01-10T12:47:39.534Z,20.40
2023-01-10T12:50:14.783Z,20.20
2023-01-10T12:52:49.121Z,22.30
2023-01-10T12:55:19.286Z,18.67
2023-01-10T12:57:52.060Z,20.40
2023-01-10T13:00:25.328Z,17.88
2023-01-10T13:02:57.092Z,19.33
2023-01-10T13:05:27.810Z,18.23
2023-01-10T13:08:01.735Z,20.25
2023-01-10T13:10:30.655Z,19.55
2023-01-10T13:13:05.540Z,19.20
2023-01-10T13:15:39.707Z,20.48
2023-01-10T13:18:21.289Z,18.45
2023-01-10T13:20:49.526Z,18.75
2023-01-10T13:23:30.325Z,16.35
2023-01-10T13:26:02.801Z,18.23
2023-01-10T13:28:35.127Z,18.52
2023-01-10T13:31:07.162Z,18.33
2023-01-10T13:33:40.442Z,20.55
2023-01-10T13:36:13.104Z,19.98
2023-01-10T13:38:51.187Z,16.85
2023-01-10T13:41:37.836Z,20.40
2023-01-10T13:44:11.373Z,20.52
2023-01-10T13:46:48.882Z,20.02
2023-01-10T13:49:48.999Z,20.52
2023-01-10T13:52:37.926Z,20.85
2023-01-10T13:55:27.723Z,22.08
2023-01-10T13:58:00.528Z,22.25
2023-01-10T14:01:06.878Z,23.73
2023-01-10T14:03:53.540Z,22.42
2023-01-10T14:06:41.266Z,24.08
2023-01-10T14:09:34.270Z,24.20
2023-01-10T14:12:04.548Z,22.10
2023-01-10T14:14:37.198Z,22.90
2023-01-10T14:17:16.136Z,21.60
2023-01-10T14:19:46.787Z,22.73
2023-01-10T14:22:28.287Z,20.35
2023-01-10T14:24:56.667Z,20.88
2023-01-10T14:27:25.131Z,21.10
2023-01-10T14:29:57.377Z,21.90
2023-01-10T14:32:35.845Z,21.25
2023-01-10T14:35:07.544Z,21.33
2023-01-10T14:37:42.259Z,21.58
2023-01-10T14:40:25.519Z,21.77
2023-01-10T14:42:58.509Z,22.35
2023-01-10T14:45:36.426Z,22.75
2023-01-10T14:48:27.848Z,22.35
2023-01-10T14:51:09.206Z,22.20
2023-01-10T14:53:37.439Z,22.25
2023-01-10T14:56:17.897Z,21.17
2023-01-10T14:58:46.176Z,20.92
2023-01-10T15:01:18.889Z,20.67
2023-01-10T15:03:48.833Z,20.73
2023-01-10T15:06:16.986Z,19.40
2023-01-10T15:08:45.234Z,20.40
2023-01-10T15:11:15.246Z,18.92
2023-01-10T15:13:50.370Z,19.27
2023-01-10T15:18:51.125Z,17.10
2023-01-10T15:21:22.309Z,18.13
2023-01-10T15:23:52.288Z,18.35
2023-01-10T15:26:27.398Z,17.02
2023-01-10T15:29:13.452Z,16.50
2023-01-10T15:31:42.666Z,16.38
2023-01-10T15:34:18.234Z,15.73
2023-01-10T15:36:49.680Z,15.63
2023-01-10T15:39:21.523Z,15.48
2023-01-10T15:41:51.497Z,16.83
2023-01-10T15:44:24.691Z,16.25
2023-01-10T15:46:57.099Z,15.35
2023-01-10T15:49:28.138Z,17.70
2023-01-10T15:51:57.641Z,16.33
2023-01-10T15:54:33.164Z,17.88
2023-01-10T15:57:18.514Z,18.25
2023-01-10T15:59:49.983Z,19.35
2023-01-10T16:02:24.897Z,19.50
2023-01-10T16:04:57.900Z,19.70
2023-01-10T16:07:29.069Z,21.10
2023-01-10T16:10:01.041Z,20.48
2023-01-10T16:12:53.383Z,20.10
2023-01-10T16:15:24.250Z,20.42
2023-01-10T16:17:53.473Z,20.83
2023-01-10T16:20:26.907Z,21.13
2023-01-10T16:22:56.597Z,20.63
2023-01-10T16:25:32.004Z,20.80
2023-01-10T16:28:00.954Z,20.65
2023-01-10T16:30:31.179Z,20.63
2023-01-10T16:33:01.004Z,20.45
2023-01-10T16:35:30.585Z,20.95
2023-01-10T16:38:00.618Z,19.58
2023-01-10T16:40:31.125Z,19.80
2023-01-10T16:43:16.951Z,20.23
2023-01-10T16:45:46.130Z,19.45
2023-01-10T16:48:14.863Z,21.17
2023-01-10T16:50:44.948Z,19.95
2023-01-10T16:53:13.917Z,20.42
2023-01-10T16:55:45.384Z,21.02
2023-01-10T16:58:15.070Z,20.48
2023-01-10T17:00:47.025Z,20.20
2023-01-10T17:03:18.029Z,19.77
2023-01-10T17:05:48.173Z,20.58
2023-01-10T17:08:18.639Z,20.42
2023-01-10T17:10:49.296Z,19.63
2023-01-10T17:13:23.733Z,19.35
2023-01-10T17:15:52.020Z,19.58
2023-01-10T17:18:20.214Z,20.70
2023-01-10T17:20:49.867Z,20.17
2023-01-10T17:23:18.057Z,21.35
2023-01-10T17:25:47.233Z,21.08
2023-01-10T17:28:15.444Z,20.67
2023-01-10T17:30:44.668Z,19.73
2023-01-10T17:33:13.698Z,21.00
2023-01-10T17:35:42.342Z,20.17
2023-01-10T17:38:13.499Z,20.75
2023-01-10T17:40:42.115Z,20.52
2023-01-10T17:43:11.153Z,19.88
2023-01-10T17:45:41.078Z,18.52
2023-01-10T17:48:10.128Z,19.70
2023-01-10T17:50:38.653Z,19.13
2023-01-10T17:53:07.436Z,20.58
2023-01-10T17:55:37.368Z,19.48
2023-01-10T17:58:05.604Z,18.92
2023-01-10T18:00:33.855Z,19.05
2023-01-10T18:03:02.095Z,18.58
2023-01-10T18:05:32.705Z,19.13
2023-01-10T18:08:02.258Z,19.02
2023-01-10T18:10:30.645Z,18.92
2023-01-10T18:13:03.180Z,18.95
2023-01-10T18:15:31.800Z,17.60
2023-01-10T18:18:00.001Z,19.13
2023-01-10T18:20:28.395Z,18.20
2023-01-10T18:23:14.159Z,18.42
2023-01-10T18:25:42.483Z,18.23
2023-01-10T18:28:11.991Z,18.75
2023-01-10T18:30:40.450Z,17.88
2023-01-10T18:33:08.910Z,18.25
2023-01-10T18:35:38.745Z,18.40
2023-01-10T18:38:06.883Z,18.02
2023-01-10T18:40:35.156Z,17.08
2023-01-10T18:43:03.323Z,17.33
2023-01-10T18:45:32.905Z,18.42
2023-01-10T18:48:02.437Z,17.67
2023-01-10T18:50:30.662Z,18.27
2023-01-10T18:52:59.971Z,17.40
2023-01-10T18:55:28.499Z,16.73
2023-01-10T18:57:56.683Z,17.13
2023-01-10T19:00:25.299Z,16.23
2023-01-10T19:02:57.786Z,16.33
2023-01-10T19:05:26.147Z,17.95
2023-01-10T19:07:54.329Z,17.80
2023-01-10T19:10:22.790Z,17.92
2023-01-10T19:12:51.051Z,18.15
2023-01-10T19:15:19.463Z,18.23
2023-01-10T19:17:47.656Z,18.23
2023-01-10T19:20:17.881Z,18.75
2023-01-10T19:22:47.565Z,18.05
2023-01-10T19:25:15.998Z,19.00
2023-01-10T19:27:44.146Z,19.85
2023-01-10T19:30:12.854Z,20.13
2023-01-10T19:32:41.151Z,19.15
2023-01-10T19:35:10.419Z,19.27
2023-01-10T19:37:40.159Z,20.23
2023-01-10T19:40:10.194Z,19.98
2023-01-10T19:42:38.490Z,19.35
2023-01-10T19:45:08.224Z,19.90
2023-01-10T19:47:36.975Z,19.92
2023-01-10T19:50:05.863Z,19.17
2023-01-10T19:52:34.061Z,19.17
2023-01-10T19:55:03.773Z,19.58
2023-01-10T19:57:31.941Z,20.23
2023-01-10T20:00:00.199Z,19.40
2023-01-10T20:02:28.553Z,19.33
2023-01-10T20:04:56.844Z,19.42
2023-01-10T20:07:25.007Z,20.13
2023-01-10T20:09:56.752Z,20.13
2023-01-10T20:12:26.885Z,21.13
2023-01-10T20:14:55.087Z,21.50
2023-01-10T20:17:23.668Z,22.50
2023-01-10T20:19:51.799Z,23.33
2023-01-10T20:22:20.203Z,22.02
2023-01-10T20:24:48.448Z,23.63
2023-01-10T20:27:16.640Z,23.52
2023-01-10T20:29:46.435Z,24.85
2023-01-10T20:32:15.216Z,23.45
2023-01-10T20:34:44.339Z,23.58
2023-01-10T20:37:14.217Z,24.58
2023-01-10T20:39:42.656Z,25.58
2023-01-10T20:42:10.938Z,25.05
2023-01-10T20:44:39.268Z,27.30
2023-01-10T20:47:08.950Z,28.75
2023-01-10T20:49:37.170Z,29.27
2023-01-10T20:52:05.744Z,29.48
2023-01-10T20:54:34.864Z,32.45
2023-01-10T20:57:03.155Z,35.50
2023-01-10T20:59:32.532Z,37.20
2023-01-10T21:02:02.302Z,37.85
2023-01-10T21:04:33.039Z,37.43
2023-01-10T21:07:02.659Z,39.43
2023-01-10T21:09:30.921Z,40.28
2023-01-10T21:12:10.647Z,39.27
2023-01-10T21:14:48.023Z,36.10
2023-01-10T21:17:16.222Z,37.33
2023-01-10T21:19:45.848Z,36.78
2023-01-10T21:22:14.428Z,34.93
2023-01-10T21:24:44.122Z,36.57
2023-01-10T21:27:12.336Z,34.33
2023-01-10T21:29:43.595Z,34.87
2023-01-10T21:32:13.116Z,30.63
2023-01-10T21:34:41.645Z,31.30
2023-01-10T21:37:11.292Z,29.77
2023-01-10T21:39:39.431Z,28.90
2023-01-10T21:42:24.800Z,30.37
2023-01-10T21:44:53.061Z,27.20
2023-01-10T21:47:21.292Z,27.77
2023-01-10T21:49:49.603Z,27.75
2023-01-10T21:52:19.358Z,26.93
2023-01-10T21:54:47.584Z,26.98
2023-01-10T21:57:19.258Z,25.13
2023-01-10T21:59:47.462Z,26.27
2023-01-10T22:02:16.513Z,24.27
2023-01-10T22:04:47.050Z,23.83
2023-01-10T22:07:15.808Z,25.30
2023-01-10T22:09:45.382Z,26.23
2023-01-10T22:12:14.080Z,25.17
2023-01-10T22:14:42.228Z,25.47
2023-01-10T22:17:11.852Z,24.43
2023-01-10T22:19:40.197Z,22.63
2023-01-10T22:22:08.981Z,24.00
2023-01-10T22:24:37.414Z,22.63
2023-01-10T22:27:07.137Z,21.63
2023-01-10T22:29:35.552Z,21.30
2023-01-10T22:32:04.041Z,22.02
2023-01-10T22:34:32.247Z,22.10
2023-01-10T22:37:00.765Z,22.35
2023-01-10T22:39:29.027Z,22.05
2023-01-10T22:41:57.381Z,22.27
2023-01-10T22:44:27.700Z,23.33
2023-01-10T22:46:56.616Z,23.92
2023-01-10T22:49:24.891Z,22.35
2023-01-10T22:51:53.136Z,23.15
2023-01-10T22:54:21.339Z,22.88
2023-01-10T22:56:49.631Z,21.73
2023-01-10T23:02:05.087Z,22.60
2023-01-10T23:04:33.338Z,23.52
2023-01-10T23:07:01.669Z,22.57
2023-01-10T23:09:29.940Z,22.60
2023-01-10T23:11:58.211Z,22.30
2023-01-10T23:14:26.362Z,22.67
2023-01-10T23:16:55.057Z,22.53
2023-01-10T23:19:24.723Z,23.30
2023-01-10T23:21:53.059Z,23.05
2023-01-10T23:24:21.425Z,24.07
2023-01-10T23:26:51.031Z,26.27
2023-01-10T23:29:19.221Z,26.20
2023-01-10T23:31:50.151Z,26.77
2023-01-10T23:34:18.537Z,25.17
2023-01-10T23:36:48.106Z,24.90
2023-01-10T23:39:18.993Z,26.17
2023-01-10T23:41:47.331Z,28.33
2023-01-10T23:44:15.620Z,28.27
2023-01-10T23:46:43.920Z,27.37
2023-01-10T23:49:12.287Z,28.80
2023-01-10T23:51:40.748Z,30.27
2023-01-10T23:54:10.305Z,29.03
2023-01-10T23:56:38.564Z,28.40
2023-01-10T23:59:06.738Z,28.27
